Latonia, Mississippi
Current Conditions -  °F | °C
As of 7:56 AM on Tuesday 21 Oct 2014 (Local Time) from KMOB Reporting Station
Few Clouds Few Clouds  
Wind Chill: 57°   Ceiling: Unl
Heat Index: 57°   Visibility: 10mi
Dew Point: 53°   Wind: 3mph
Humidity: 87%   Direction: 30°NNE
Pressure: 30.06"   Gusts: NA
Location:  30.8443°N, 88.5703°W
Report Text: KMOB 211256Z 03003KT 10SM FEW045 14/12 A3006 RMK AO2 SLP177 T01390117
Loading
Personal Weather Stations






























Interactive Weather Map
Tropical Storm Tracking
New forecast layout! Learn more

10-Day Weather Forecast

Advertisements
Track Severe Weather on mobile